To NAV CANADA Home Page Login to a new session Search on AWWS site Feedback and Comments Disclaimer Vers la page française équivalente Tips FAQ What's new on the site To the Forecasts and Observations / NOTAM section To "File a Flight Plan" website Publications and other links Update of the User's profile FIC Telephone Numbers My Weather Data Folder Route Weather Data Regional Weather Data Local Weather Data To the Forecasts and Observations / NOTAM section
Request Generated 04/23/2014 at 07:15:13 UTC . Weather information available at that time is displayed.

METAR/TAF

REPULSE BAY/NU    

CYUT - METAR not available

*** REMARK        : Forecast period has ended; this was the last TAF issued
*** REMARQUE : La période de prévision est échue; ceci était le dernier TAF qui a été émis
TAF CYUT 221838Z 2219/2222 34007KT P6SM IC FEW006 PROB30 2219/2222
1SM BR
RMK NXT FCST WILL BE ISSUED AT 231345Z=
Your time UTC time
Weather data provided by Environment Canada and NAV CANADA